CYCOCYCB

Guest
Details From CYCO - KUGLUKTUK
To CYCB - CAMBRIDGE BAY
Flight Number -
Tags generated
Created
Modified
Stats Distance 241 nm / 447 km
Max Altitude 21,400 ft / 6,523 m
Waypoints 4
Social Downloads 0
Likes 0
Share VATSIM

Download

Looking for another format? Having issues loading an existing format? Contact us
Advertisement - Login to hide

Notes

Basic altitude profile: - Ascent Rate: 2500ft/min - Ascent Speed: 250kts - Cruise Altitude: 35000ft - Cruise Speed: 420kts - Descent Rate: 1500ft/min - Descent Speed: 250kts Options: - Use NATs: yes - Use PACOTS: yes - Use low airways: yes - Use high airways: yes

Route

CYCO 6800N11500W N6900 CYCB

ID Type Via Altitude Latitude Longitude Leg Dist Tot Dist Heading (true) Name
O CYCO APT - 0 ft / 0 m 67.81667˚ -115.14403˚ - 0 nm - KUGLUKTUK
6800N11500W LATLON - 4,100 ft / 1,250 m 68.00000˚ -115.00000˚ 11 nm 11 nm 16° / 17° -
N6900 FIX - 21,400 ft / 6,523 m 69.00000˚ -110.00000˚ 125 nm 136 nm 59° / 64° -
O CYCB APT - 0 ft / 0 m 69.10806˚ -105.13833˚ 104 nm 241 nm 84° / 89° CAMBRIDGE BAY

Altitude Profile

Advertisement - Login to hide

Weather


0- 5 10 15 20 25 30 35+ Temperature / ° C

Clouds and Precipitation
Forecast for 2018-05-22 00:00 UTC. Updated 4 hours ago

Ground ~20,000 ft ~40,000 ft Winds

CYCO

Details ICAO CYCO (YCO)
Name KUGLUKTUK
Region Canada
Timezone America/Cambridge_Bay (UTC-6.0)
Stats Elevation 74 ft / 23 m (AMSL)
Location 67.816667° -115.144028°
Runways 1
Magnetic Variation 17.296° E

METAR

CYCO 220300Z 09015G23KT 1 1/4SM -SN DRSN OVC006 M03/M04 A2995 RMK SN5ST3 /S01/ SLP146

Decode

TAF

TAF AMD TAF AMD CYCO 220239Z 2202/2213 09015G25KT P6SM BKN070 TEMPO 2202/2206 2SM -SN BKN007 OVC040 FM220600 08012KT P6SM -SN SCT020 OVC050 TEMPO 2206/2213 2SM -SN BKN020 OVC050 PROB30 2206/2213 1SM -FZRA BR OVC006 RMK NXT FCST BY 220700Z

Decode

Departure Runways

ID Width Length Bearing (true) Bearing (mag) Surface Threshold Offset Overrun Length
12T 100 ft / 30 m 5,497 ft / 1,676 m 121.07° 103.77° Gravel 0 ft / 0 m 0 ft / 0 m
30T 100 ft / 30 m 5,497 ft / 1,676 m 301.10° 283.80° Gravel 0 ft / 0 m 0 ft / 0 m

CYCB

Details ICAO CYCB (YCB)
Name CAMBRIDGE BAY
Region Canada
Timezone America/Cambridge_Bay (UTC-6.0)
Stats Elevation 90 ft / 27 m (AMSL)
Location 69.108056° -105.138334°
Runways 1
Magnetic Variation 6.832° E

METAR

CYCB 220300Z 05003KT 350V060 10SM FEW006 BKN015 OVC025 M06/M08 A3012 RMK SF1ST6SC2 SF TR SLP205

Decode

TAF

TAF AMD TAF AMD CYCB 220103Z 2201/2213 VRB03KT 5SM -SN OVC015 TEMPO 2201/2210 P6SM -SN -SG OVC025 FM221000 VRB03KT P6SM SCT025 TEMPO 2210/2213 P6SM -SN BKN020 RMK NXT FCST BY 220700Z

Decode

Destination Runways

ID Width Length Bearing (true) Bearing (mag) Surface Threshold Offset Overrun Length
13T 150 ft / 46 m 5,006 ft / 1,526 m 127.39° 120.56° Gravel 0 ft / 0 m 0 ft / 0 m
31T 150 ft / 46 m 5,006 ft / 1,526 m 307.42° 300.59° Gravel 0 ft / 0 m 100 ft / 30 m

Popular Alternatives